LFT weather

La Floresta Airport
Yaguara, Huila Department, Colombia

Public forecast

Using degrees Celsius for public forecast. Weather courtesy of forecast.io.

METAR (pilot weather report)

Closest report is Benito Salas Airport, 25.6 nm (47.4 km) NE. Retrieved 2019/08/21 15:00 UTC (50 minutes ago):

SKNV 211500Z 15006KT 100V190 9999 FEW045 SCT230 31/15 A3002

TAF (pilot weather forecast)

Closest forecast is Alfonso Bonilla Aragon International Airport, 73.1 nm (135.3 km) NW. Retrieved 2019/08/21 12:44 UTC (3 hours ago):

TAF SKCL 211030Z 2112/2212 VRB02KT 9999 FEW030 BECMG 2118/2120 33012KT BECMG 2203/2204 VRB03KT TX33/2119Z TN18/2211Z